Meath Environmental Platform

Observations for Trim Market St

Time AQI Temp °C Hum % Pres Pa CO μg/m³ H₂S μg/m³ NO μg/m³ NO₂ μg/m³ O₃ μg/m³ SO₂ μg/m³ PM1 μg/m³ PM2.5 μg/m³ PM10 μg/m³
Wednesday 8 July 2026
22:24 1 23.5 60 57,766 0 0 0 5.07 17.84 0 1.43 3.01 4.11
22:22 1 23.6 60 57,770 0 0 0 5.06 14.36 0 0.71 2.52 3.41
22:21 1 23.6 60 57,773 0 0 0 7.38 14.2 0 0 2.52 3.41
22:19 1 23.7 60 57,785 0 0 0 6.57 13.82 0 1.43 2.53 4.78
22:16 1 23.9 60 57,794 0 0 0 5.84 12.7 0 2.14 3.54 4.77
22:07 1 24.3 59 57,798 0 0 0 8.88 9.06 0 0.71 2.56 3.38
22:06 1 24.4 59 57,794 0 0 0 4.25 12.86 0 0.71 2.06 2.69
22:03 1 24.5 60 57,769 0 0 0 5.08 7.14 0 1.43 3.04 4.09
22:02 1 24.6 60 57,763 0 0 0 6.94 11.8 0 1.43 4.04 5.46
22:01 1 24.6 60 57,756 0 0 0 8.33 8.1 0 2.14 3.53 4.78
22:00 1 24.6 60 57,747 0 0 0 7 3.37 0 0.71 3.02 5.47
21:58 1 24.7 60 57,743 0 2.7 0 13.67 21.13 0 0.71 3.52 4.79
21:56 1 24.8 60 57,760 0 0 0 8.47 15.58 0 1.43 4.53 6.16
21:55 1 24.8 60 57,768 0 0.38 0 11.07 10.3 0 0.71 3.53 4.78
21:54 1 24.9 60 57,777 0 0 0 10.86 18.01 0 2.14 4.54 6.15
21:50 1 25 59 57,787 0 0.35 0 11.67 15.19 0 2.85 4.56 6.15
21:45 1 25.2 59 57,804 0 1.51 0 9.77 17.85 0 1.43 3.58 5.45
21:41 1 25.3 59 57,814 0 2.76 0 13.27 14.74 0 2.85 4.09 6.83
21:40 1 25.4 59 57,818 0 2.62 0 12.65 12.15 0 1.43 4.09 6.14
21:36 1 25.5 58 57,831 0 1.76 0 11.89 14.18 0 1.43 4.63 7.53